Time;durP1;ratioP1;P1;durP2;ratioP2;P2;SDS_P1;SDS_P2;PMS_P1;PMS_P2;Temp;Humidity;BMP_temperature;BMP_pressure;BME280_temperature;BME280_humidity;BME280_pressure;Samples;Min_cycle;Max_cycle;Signal;HPM_P1;HPM_P2
2023/04/10 00:00:15;;;;;;;97.80;46.02;;;;;;;7.61;100.00;101695.00;4832966;58;1140985;-69
2023/04/10 00:05:22;;;;;;;90.47;44.53;;;;;;;7.61;100.00;101688.42;4839578;59;1143931;-70
2023/04/10 00:10:30;;;;;;;78.10;43.38;;;;;;;7.57;100.00;101690.80;4838009;59;1143136;-69
2023/04/10 00:15:35;;;;;;;75.03;41.43;;;;;;;7.32;100.00;101679.23;4887033;58;1143203;-70
2023/04/10 00:20:41;;;;;;;82.23;42.47;;;;;;;7.24;100.00;101675.62;4802184;59;1143445;-72
2023/04/10 00:25:48;;;;;;;85.87;43.10;;;;;;;7.30;100.00;101671.86;4876946;58;1141181;-70
2023/04/10 00:30:54;;;;;;;82.93;41.67;;;;;;;7.34;100.00;101676.89;4863940;57;1140982;-71
2023/04/10 00:36:00;;;;;;;79.47;38.07;;;;;;;7.35;100.00;101677.30;4811142;59;1143192;-69
2023/04/10 00:41:06;;;;;;;83.30;43.03;;;;;;;7.38;100.00;101677.16;4791685;59;1143155;-68
2023/04/10 00:46:11;;;;;;;67.10;38.23;;;;;;;7.44;100.00;101675.18;4812891;59;1143019;-69
2023/04/10 00:51:19;;;;;;;68.33;37.07;;;;;;;7.45;100.00;101671.63;4777489;60;1143354;-72
2023/04/10 00:56:25;;;;;;;76.17;39.00;;;;;;;7.45;100.00;101665.90;4778781;58;1143429;-72
2023/04/10 01:01:31;;;;;;;82.63;45.20;;;;;;;7.43;100.00;101666.89;4780562;58;1141946;-71
2023/04/10 01:06:46;;;;;;;78.17;42.17;;;;;;;7.34;100.00;101661.57;4716444;61;1141234;-71
2023/04/10 01:12:08;;;;;;;76.60;37.40;;;;;;;7.29;100.00;101664.44;4757423;60;1143297;-70
2023/04/10 01:17:30;;;;;;;68.63;38.00;;;;;;;7.27;100.00;101662.33;4816839;57;1143361;-71
2023/04/10 01:23:13;;;;;;;80.27;41.77;;;;;;;7.09;100.00;101664.93;4880396;58;1143337;-69
2023/04/10 01:28:45;;;;;;;78.07;41.70;;;;;;;6.86;100.00;101665.97;4959202;58;1150603;-69
2023/04/10 01:33:55;;;;;;;61.60;35.00;;;;;;;6.62;100.00;101666.09;4934998;58;1141101;-71
2023/04/10 01:39:02;;;;;;;63.03;31.77;;;;;;;6.39;100.00;101668.00;4935551;58;1141312;-69
2023/04/10 01:44:10;;;;;;;59.97;28.03;;;;;;;6.33;100.00;101669.95;4945430;56;1143220;-69
2023/04/10 01:49:17;;;;;;;60.98;32.40;;;;;;;6.20;100.00;101684.52;4878385;56;1143196;-70
2023/04/10 01:54:31;;;;;;;68.70;35.15;;;;;;;6.07;100.00;101685.08;4861442;56;1145226;-71
2023/04/10 01:59:39;;;;;;;69.27;36.15;;;;;;;6.04;100.00;101693.93;4860278;56;1143198;-67
2023/04/10 02:04:50;;;;;;;57.93;31.47;;;;;;;6.04;100.00;101698.33;4733369;60;1140881;-70
2023/04/10 02:10:05;;;;;;;54.80;29.40;;;;;;;6.17;100.00;101697.77;4838308;57;1141026;-71
2023/04/10 02:15:12;;;;;;;48.90;25.23;;;;;;;6.29;100.00;101693.78;4779574;59;1140965;-69
2023/04/10 02:20:18;;;;;;;50.27;26.87;;;;;;;6.31;100.00;101683.61;4771536;59;1143367;-71
2023/04/10 02:25:24;;;;;;;43.20;23.50;;;;;;;6.11;100.00;101684.05;4765505;59;1143080;-67
2023/04/10 02:30:29;;;;;;;45.23;25.63;;;;;;;6.18;100.00;101686.80;4766890;60;1143819;-71
2023/04/10 02:35:36;;;;;;;42.48;24.57;;;;;;;6.31;100.00;101686.69;4777308;60;1143243;-71
2023/04/10 02:40:42;;;;;;;48.60;26.67;;;;;;;6.39;100.00;101687.70;4750029;60;1141038;-66
2023/04/10 02:45:50;;;;;;;44.93;24.63;;;;;;;6.40;100.00;101699.47;4811265;59;1141118;-72
2023/04/10 02:50:58;;;;;;;48.93;25.83;;;;;;;6.12;100.00;101704.11;4855125;59;1141211;-69
2023/04/10 02:56:10;;;;;;;37.00;23.00;;;;;;;6.02;100.00;101702.78;4823977;58;1141017;-67
2023/04/10 03:01:16;;;;;;;51.50;25.17;;;;;;;6.02;100.00;101693.59;4854025;59;1140996;-68
2023/04/10 03:06:26;;;;;;;46.94;25.92;;;;;;;6.05;100.00;101693.02;4951387;57;1143212;-69
2023/04/10 03:11:33;;;;;;;54.67;26.50;;;;;;;6.08;100.00;101691.59;4949214;58;1143056;-72
2023/04/10 03:16:38;;;;;;;55.87;28.80;;;;;;;6.08;100.00;101693.36;4940238;58;1140867;-70
2023/04/10 03:21:45;;;;;;;44.50;25.97;;;;;;;6.04;100.00;101695.24;4896296;58;1141058;-72
2023/04/10 03:26:51;;;;;;;45.63;26.53;;;;;;;5.93;100.00;101695.68;4807645;59;1141056;-69
2023/04/10 03:31:56;;;;;;;49.00;27.20;;;;;;;5.78;100.00;101694.08;4790341;59;1141153;-71
2023/04/10 03:37:03;;;;;;;43.48;23.55;;;;;;;5.71;100.00;101693.91;4792271;59;1141327;-68
2023/04/10 03:42:10;;;;;;;48.90;25.53;;;;;;;5.74;100.00;101692.48;4809692;59;1142981;-72
2023/04/10 03:47:17;;;;;;;50.50;25.07;;;;;;;5.77;100.00;101684.03;4842367;58;1143112;-73
2023/04/10 03:52:25;;;;;;;44.13;26.30;;;;;;;5.68;100.00;101683.06;4862994;58;1141063;-72
2023/04/10 03:57:30;;;;;;;45.92;25.20;;;;;;;5.33;100.00;101688.36;4864331;58;1141065;-70
2023/04/10 04:02:37;;;;;;;45.63;25.02;;;;;;;5.12;100.00;101698.31;4888179;58;1150638;-67
2023/04/10 04:07:44;;;;;;;40.57;23.87;;;;;;;5.10;100.00;101700.98;4866806;58;1140962;-70
2023/04/10 04:12:54;;;;;;;45.00;23.70;;;;;;;5.00;100.00;101702.69;4849529;58;1141083;-71
2023/04/10 04:18:10;;;;;;;39.23;22.40;;;;;;;4.88;100.00;101713.16;4804534;59;1140929;-68
2023/04/10 04:23:18;;;;;;;38.67;21.53;;;;;;;4.94;100.00;101712.47;4943023;58;1142966;-71
2023/04/10 04:28:34;;;;;;;55.00;27.27;;;;;;;4.93;100.00;101711.21;4811013;59;1143079;-69
2023/04/10 04:33:41;;;;;;;42.33;25.00;;;;;;;5.06;100.00;101700.69;4910175;58;1141100;-72
2023/04/10 04:38:48;;;;;;;43.87;24.13;;;;;;;5.19;100.00;101702.44;4956202;58;1141136;-69
2023/04/10 04:44:10;;;;;;;42.07;23.10;;;;;;;5.28;100.00;101710.81;4919338;58;1141252;-70
2023/04/10 04:49:34;;;;;;;46.28;23.52;;;;;;;5.32;100.00;101707.63;4859978;58;1141150;-72
2023/04/10 04:54:46;;;;;;;;;;;;;;;5.16;100.00;101714.34;4900272;58;1141249;-68
2023/04/10 05:00:12;;;;;;;42.70;23.83;;;;;;;5.09;100.00;101722.02;4950430;57;974125;-69
2023/04/10 05:05:35;;;;;;;34.60;19.37;;;;;;;5.07;100.00;101733.01;4858099;58;1141533;-68
2023/04/10 05:10:51;;;;;;;38.70;20.20;;;;;;;4.90;100.00;101737.53;4824966;58;1143137;-66
2023/04/10 05:16:01;;;;;;;49.77;25.63;;;;;;;4.74;100.00;101742.89;4758216;58;1143068;-67
2023/04/10 05:21:12;;;;;;;53.77;26.90;;;;;;;4.64;100.00;101748.05;4806562;58;1143121;-70
2023/04/10 05:26:35;;;;;;;57.07;29.13;;;;;;;4.64;100.00;101749.36;4841997;58;1141182;-71
2023/04/10 05:32:00;;;;;;;59.30;29.10;;;;;;;4.70;100.00;101754.41;4845169;58;1141838;-71
2023/04/10 05:37:14;;;;;;;54.97;24.93;;;;;;;4.91;100.00;101756.28;4829857;59;1140923;-69
2023/04/10 05:42:27;;;;;;;48.70;21.20;;;;;;;5.16;100.00;101758.92;4875096;58;1141066;-70
2023/04/10 05:47:34;;;;;;;36.17;17.82;;;;;;;5.56;100.00;101763.58;4778928;58;1143227;-68
2023/04/10 05:52:41;;;;;;;23.53;11.33;;;;;;;5.94;100.00;101764.80;4820443;57;1143284;-70
2023/04/10 05:58:04;;;;;;;20.53;13.20;;;;;;;6.30;100.00;101758.09;4749959;58;1143040;-70
2023/04/10 06:03:11;;;;;;;19.23;10.70;;;;;;;6.62;100.00;101769.06;4797883;57;1142981;-70
2023/04/10 06:08:18;;;;;;;16.67;8.87;;;;;;;6.80;100.00;101758.25;4946678;57;1141025;-70
2023/04/10 06:13:26;;;;;;;20.07;8.40;;;;;;;6.98;100.00;101760.95;4937236;58;1141064;-68
2023/04/10 06:18:33;;;;;;;14.17;8.83;;;;;;;7.14;100.00;101758.52;4937124;58;1141261;-69
2023/04/10 06:23:39;;;;;;;15.97;8.93;;;;;;;7.35;100.00;101758.02;4952754;58;1141267;-68
2023/04/10 06:28:45;;;;;;;13.62;8.88;;;;;;;7.51;100.00;101758.19;4934693;58;1141074;-69
2023/04/10 06:33:52;;;;;;;16.27;8.77;;;;;;;7.78;100.00;101756.09;4935795;58;1138919;-67
2023/04/10 06:38:58;;;;;;;15.90;8.17;;;;;;;8.00;100.00;101754.16;4960921;58;1138886;-71
2023/04/10 06:44:04;;;;;;;16.47;9.50;;;;;;;8.18;100.00;101749.34;4918833;58;1140948;-69
2023/04/10 06:49:10;;;;;;;16.33;8.73;;;;;;;8.36;100.00;101744.99;4806725;58;1141097;-70
2023/04/10 06:54:15;;;;;;;15.73;8.87;;;;;;;8.53;100.00;101748.13;4856634;59;1140900;-71
2023/04/10 06:59:21;;;;;;;11.37;7.27;;;;;;;8.73;100.00;101745.33;4840719;58;1141124;-69
2023/04/10 07:04:26;;;;;;;13.10;7.67;;;;;;;8.63;100.00;101734.39;4783982;59;1141960;-67
2023/04/10 07:09:32;;;;;;;13.67;7.87;;;;;;;8.97;100.00;101750.69;4784429;59;1142867;-73
2023/04/10 07:14:37;;;;;;;20.60;8.85;;;;;;;9.22;100.00;101760.83;4958743;58;1141008;-75
2023/04/10 07:19:43;;;;;;;14.80;8.77;;;;;;;9.52;100.00;101767.12;4907537;58;1140931;-74
2023/04/10 07:24:49;;;;;;;14.17;7.93;;;;;;;9.71;100.00;101767.47;4921209;55;1141085;-74
2023/04/10 07:29:56;;;;;;;12.60;8.10;;;;;;;9.90;100.00;101770.82;4962323;57;1141207;-74
2023/04/10 07:35:01;;;;;;;13.70;7.90;;;;;;;10.17;100.00;101770.61;4940336;58;1141172;-75
2023/04/10 07:40:09;;;;;;;14.33;8.10;;;;;;;10.50;100.00;101766.56;4940627;58;1143294;-75
2023/04/10 07:45:15;;;;;;;11.83;8.37;;;;;;;10.75;100.00;101755.40;4922099;58;1143203;-76
2023/04/10 07:50:20;;;;;;;17.03;9.43;;;;;;;10.97;100.00;101758.97;4935034;58;1143040;-75
2023/04/10 07:55:26;;;;;;;15.70;8.87;;;;;;;11.14;100.00;101745.58;4939069;58;1143229;-75
2023/04/10 08:00:32;;;;;;;17.48;8.95;;;;;;;11.33;100.00;101741.78;4942232;57;1143088;-75
2023/04/10 08:05:38;;;;;;;11.08;8.25;;;;;;;11.54;100.00;101729.41;4962789;57;1143226;-75
2023/04/10 08:10:43;;;;;;;18.70;9.37;;;;;;;11.72;100.00;101724.75;4934584;57;1143174;-74
2023/04/10 08:15:49;;;;;;;14.93;8.33;;;;;;;11.97;100.00;101727.56;4858963;58;1143167;-75
2023/04/10 08:20:55;;;;;;;16.73;8.90;;;;;;;12.09;100.00;101725.06;4909185;58;1143137;-76
2023/04/10 08:26:02;;;;;;;9.30;7.40;;;;;;;12.29;100.00;101725.95;4896159;58;1143023;-75
2023/04/10 08:31:08;;;;;;;17.52;7.78;;;;;;;12.52;100.00;101724.45;4933345;58;1141117;-76
2023/04/10 08:36:14;;;;;;;11.70;7.17;;;;;;;12.60;100.00;101725.63;4956138;58;1143167;-75
2023/04/10 08:41:22;;;;;;;30.73;13.10;;;;;;;12.76;100.00;101720.14;4938330;58;1143064;-76
2023/04/10 08:46:29;;;;;;;11.90;7.27;;;;;;;12.92;100.00;101714.16;4940237;57;1145120;-75
2023/04/10 08:51:48;;;;;;;13.05;7.58;;;;;;;12.88;100.00;101703.84;4936141;57;1143170;-75
2023/04/10 08:56:57;;;;;;;10.53;8.30;;;;;;;13.12;100.00;101707.97;4956207;57;1143150;-74
2023/04/10 09:02:03;;;;;;;11.43;7.60;;;;;;;13.33;100.00;101703.34;4936492;57;1143136;-75
2023/04/10 09:07:09;;;;;;;13.10;7.03;;;;;;;13.56;100.00;101698.23;4933386;57;1143005;-76
2023/04/10 09:12:14;;;;;;;12.03;7.17;;;;;;;13.71;100.00;101694.47;4934166;56;1185533;-76
2023/04/10 09:17:25;;;;;;;11.60;7.43;;;;;;;13.85;100.00;101692.98;4885134;58;1143725;-79
2023/04/10 09:22:33;;;;;;;12.53;7.33;;;;;;;13.99;100.00;101686.18;4903273;58;1178164;-76
2023/04/10 09:27:39;;;;;;;15.67;8.00;;;;;;;14.15;100.00;101689.89;4888520;58;1143867;-78
2023/04/10 09:32:46;;;;;;;12.37;7.97;;;;;;;14.22;100.00;101679.62;4902777;58;1239176;-75
2023/04/10 09:37:51;;;;;;;12.93;6.73;;;;;;;14.30;100.00;101676.78;4904014;58;1165704;-75
2023/04/10 09:42:57;;;;;;;8.33;6.00;;;;;;;14.51;100.00;101663.71;4869380;58;1143043;-78
2023/04/10 09:48:10;;;;;;;10.30;7.30;;;;;;;14.70;100.00;101655.14;4926631;58;1140970;-77
2023/04/10 09:53:19;;;;;;;14.63;8.20;;;;;;;14.87;100.00;101657.36;4899636;58;1142959;-78
2023/04/10 09:58:26;;;;;;;14.80;7.23;;;;;;;15.00;100.00;101646.11;4888106;58;1231433;-77
2023/04/10 10:03:33;;;;;;;11.47;6.83;;;;;;;15.24;100.00;101643.83;4892022;58;1179630;-75
2023/04/10 10:08:40;;;;;;;15.90;7.20;;;;;;;15.43;100.00;101642.70;4901999;58;1142970;-78
2023/04/10 10:13:55;;;;;;;12.20;7.67;;;;;;;15.52;100.00;101631.31;4901157;58;1143200;-75
2023/04/10 10:19:05;;;;;;;13.13;7.07;;;;;;;15.65;100.00;101623.20;4880759;58;1143435;-78
2023/04/10 10:24:12;;;;;;;11.17;7.43;;;;;;;15.81;100.00;101621.82;4911638;58;1143210;-77
2023/04/10 10:29:18;;;;;;;11.12;6.47;;;;;;;15.91;100.00;101611.23;4897699;58;1143004;-76
2023/04/10 10:34:24;;;;;;;8.07;6.23;;;;;;;15.94;100.00;101612.31;4903106;58;1143282;-77
2023/04/10 10:39:49;;;;;;;6.43;5.80;;;;;;;16.03;100.00;101600.89;4899091;58;1140990;-76
2023/04/10 10:45:13;;;;;;;8.13;5.90;;;;;;;16.10;100.00;101598.55;4743354;60;1141070;-75
2023/04/10 10:50:22;;;;;;;8.97;6.23;;;;;;;16.02;100.00;101594.35;4704253;60;1141420;-74
2023/04/10 10:55:35;;;;;;;7.10;6.30;;;;;;;16.23;100.00;101597.88;4684810;60;1141174;-75
2023/04/10 11:01:05;;;;;;;8.90;5.58;;;;;;;16.45;100.00;101587.08;4698195;60;1141094;-77
2023/04/10 11:06:14;;;;;;;8.47;5.23;;;;;;;16.65;100.00;101566.68;4664215;60;1141075;-75
2023/04/10 11:11:24;;;;;;;8.47;6.00;;;;;;;16.90;100.00;101574.77;4642444;59;1141148;-77
2023/04/10 11:16:47;;;;;;;7.53;5.60;;;;;;;17.06;100.00;101568.92;4724383;59;1141184;-75
2023/04/10 11:22:07;;;;;;;15.57;9.27;;;;;;;17.14;100.00;101561.05;4810802;58;1141325;-76
2023/04/10 11:27:38;;;;;;;16.15;7.10;;;;;;;17.23;100.00;101556.25;4906122;58;1142964;-77
2023/04/10 11:32:48;;;;;;;8.45;6.17;;;;;;;17.41;100.00;101546.58;4889077;58;1143022;-74
2023/04/10 11:37:52;;;;;;;64.60;29.10;;;;;;;17.46;100.00;101543.47;4912423;58;1141117;-76
2023/04/10 11:43:02;;;;;;;5.40;4.20;;;;;;;17.50;84.42;101539.05;4882006;58;1145216;-77
2023/04/10 11:48:08;;;;;;;14.97;7.00;;;;;;;17.65;84.14;101534.17;4882900;58;1252659;-77
2023/04/10 11:53:21;;;;;;;7.53;4.43;;;;;;;17.69;77.15;101528.89;4921853;57;1141095;-77
2023/04/10 11:58:30;;;;;;;11.70;5.75;;;;;;;17.72;78.57;101525.91;4896779;58;1139056;-75
2023/04/10 12:03:44;;;;;;;6.65;5.17;;;;;;;17.76;72.75;101521.14;4892098;57;1141134;-75
2023/04/10 12:08:50;;;;;;;9.73;5.60;;;;;;;17.69;78.11;101512.84;4907154;58;1138769;-76
2023/04/10 12:13:57;;;;;;;11.10;5.90;;;;;;;17.74;77.29;101513.25;4886841;57;1138980;-78
2023/04/10 12:19:03;;;;;;;12.70;6.53;;;;;;;17.81;79.34;101505.51;4894810;58;1141115;-78
2023/04/10 12:24:09;;;;;;;5.53;5.00;;;;;;;17.77;73.10;101504.09;4922446;58;1141246;-75
2023/04/10 12:29:14;;;;;;;8.33;5.70;;;;;;;17.65;76.50;101491.36;4895081;58;1138894;-76
2023/04/10 12:34:20;;;;;;;10.90;6.03;;;;;;;17.73;74.53;101485.28;4810759;59;1138877;-78
2023/04/10 12:39:26;;;;;;;8.90;5.67;;;;;;;17.83;75.98;101482.98;4814059;59;1141009;-79
2023/04/10 12:44:31;;;;;;;9.27;5.83;;;;;;;18.01;73.44;101473.73;4810294;59;1138836;-76
2023/04/10 12:49:38;;;;;;;6.37;5.72;;;;;;;18.17;76.26;101470.45;4904922;59;1139109;-75
2023/04/10 12:54:44;;;;;;;6.27;5.53;;;;;;;18.31;74.59;101459.77;4936121;57;1139493;-78
2023/04/10 12:59:50;;;;;;;7.07;5.37;;;;;;;18.44;71.47;101462.47;4909505;57;1138831;-78
2023/04/10 13:04:56;;;;;;;11.43;6.33;;;;;;;18.53;66.43;101440.14;4900222;57;1138902;-77
2023/04/10 13:10:02;;;;;;;10.63;5.83;;;;;;;18.55;69.33;101436.82;4719463;58;1141242;-76
2023/04/10 13:15:09;;;;;;;23.70;10.78;;;;;;;18.48;66.64;101432.22;4733721;59;1140940;-79
2023/04/10 13:20:15;;;;;;;16.70;8.57;;;;;;;18.39;65.07;101421.88;4720695;59;1143119;-77
2023/04/10 13:25:21;;;;;;;14.13;7.77;;;;;;;18.18;63.92;101424.77;4837746;57;1141165;-77
2023/04/10 13:30:32;;;;;;;9.23;6.90;;;;;;;17.93;66.79;101418.22;4943838;57;1140909;-77
2023/04/10 13:35:41;;;;;;;9.50;8.05;;;;;;;17.73;68.71;101410.37;4909916;57;1163474;-77
2023/04/10 13:40:47;;;;;;;8.88;5.87;;;;;;;17.56;70.90;101412.78;4921389;58;1139198;-77
2023/04/10 13:45:53;;;;;;;10.13;6.50;;;;;;;17.62;69.74;101403.33;4912577;58;1138841;-74
2023/04/10 13:50:58;;;;;;;8.80;6.63;;;;;;;17.64;69.33;101393.36;4910339;57;1141126;-76
2023/04/10 13:56:05;;;;;;;13.67;7.93;;;;;;;17.70;69.15;101387.45;4928313;57;1138980;-74
2023/04/10 14:01:11;;;;;;;8.73;6.30;;;;;;;17.64;70.23;101384.48;4878906;58;1140945;-77
2023/04/10 14:06:50;;;;;;;;;;;;;;;;;;;;;
2023/04/10 14:12:18;;;;;;;14.00;8.73;;;;;;;17.35;69.41;101380.48;4947072;57;1141681;-75
2023/04/10 14:23:31;;;;;;;22.67;10.13;;;;;;;17.06;69.34;101369.80;4518690;63;1143245;-77
2023/04/10 14:29:44;;;;;;;;;;;;;;;;;;;;;
2023/04/10 14:34:58;;;;;;;;;;;;;;;16.81;69.54;101349.30;4891048;56;1136636;-73
2023/04/10 14:40:04;;;;;;;13.50;7.60;;;;;;;17.07;68.50;101342.93;5030596;56;976183;-73
2023/04/10 14:45:10;;;;;;;10.83;6.20;;;;;;;17.23;68.73;101336.52;5091790;56;1139318;-75
2023/04/10 14:50:16;;;;;;;12.00;8.37;;;;;;;17.54;71.24;101326.48;4970546;56;1140992;-78
2023/04/10 14:55:23;;;;;;;6.77;5.13;;;;;;;17.73;70.92;101306.02;5095145;55;1163472;-72
2023/04/10 15:00:29;;;;;;;15.87;9.37;;;;;;;17.89;68.68;101300.40;5216132;55;1244723;-73
2023/04/10 15:05:35;;;;;;;11.65;7.42;;;;;;;17.96;72.14;101292.63;5201300;55;1148434;-73
2023/04/10 15:10:41;;;;;;;8.53;6.92;;;;;;;17.98;70.61;101284.46;5134068;55;1174279;-75
2023/04/10 15:15:53;;;;;;;14.20;5.80;;;;;;;17.91;67.89;101294.41;5046807;56;1221907;-75
2023/04/10 15:20:54;;;;;;;7.12;5.28;;;;;;;17.85;71.78;101287.48;5155399;55;1141036;-75
2023/04/10 15:26:02;;;;;;;15.97;8.43;;;;;;;17.97;72.94;101284.11;5037616;56;1139697;-73
2023/04/10 15:31:07;;;;;;;12.13;5.93;;;;;;;18.06;72.39;101280.03;5107719;55;1141702;-73
2023/04/10 15:36:13;;;;;;;8.03;6.57;;;;;;;18.06;72.16;101269.33;5113428;56;1140969;-74
2023/04/10 15:41:18;;;;;;;6.50;5.17;;;;;;;17.99;67.96;101262.91;5112496;55;1138918;-72
2023/04/10 15:46:25;;;;;;;7.97;7.17;;;;;;;17.88;70.33;101258.56;5140964;55;1138946;-72
2023/04/10 15:51:31;;;;;;;11.50;6.13;;;;;;;17.84;70.61;101254.52;5126870;56;1138772;-75
2023/04/10 15:56:39;;;;;;;10.50;6.53;;;;;;;17.84;73.17;101245.66;5106300;56;1177848;-77
2023/04/10 16:01:44;;;;;;;14.63;8.13;;;;;;;17.93;72.83;101240.23;5104982;56;1245981;-76
2023/04/10 16:06:50;;;;;;;9.13;5.85;;;;;;;17.90;73.20;101227.64;5163870;54;1256415;-77
2023/04/10 16:11:56;;;;;;;10.53;6.77;;;;;;;17.90;71.40;101229.83;5167438;55;1250763;-75
2023/04/10 16:17:02;;;;;;;10.37;7.70;;;;;;;17.96;72.46;101219.03;5051805;55;1140974;-77
2023/04/10 16:22:07;;;;;;;12.17;7.33;;;;;;;17.97;71.16;101212.69;5076749;56;1141165;-74
2023/04/10 16:27:13;;;;;;;29.90;13.27;;;;;;;17.94;71.49;101218.33;5036219;56;1141185;-77
2023/04/10 16:32:21;;;;;;;9.43;7.40;;;;;;;17.87;70.18;101205.22;5043839;56;1255648;-77
2023/04/10 16:37:27;;;;;;;11.83;7.27;;;;;;;17.70;69.68;101199.33;5134591;56;1138898;-78
2023/04/10 16:42:33;;;;;;;13.93;7.65;;;;;;;17.47;69.81;101196.98;5107939;56;1248958;-74
2023/04/10 16:47:39;;;;;;;16.10;10.50;;;;;;;17.32;70.40;101192.26;5112709;56;1247525;-75
2023/04/10 16:52:45;;;;;;;14.98;9.20;;;;;;;17.16;71.68;101187.52;5114320;56;1143114;-75
2023/04/10 16:57:50;;;;;;;17.12;9.73;;;;;;;17.04;72.79;101184.19;4967327;58;1141160;-74
2023/04/10 17:02:58;;;;;;;18.43;10.40;;;;;;;16.99;73.62;101168.22;5114317;56;1140849;-74
2023/04/10 17:08:05;;;;;;;14.47;10.03;;;;;;;16.88;74.79;101162.07;5113888;56;1143399;-76
2023/04/10 17:13:11;;;;;;;42.07;19.60;;;;;;;16.79;75.76;101149.59;5087656;56;1142971;-77
2023/04/10 17:18:18;;;;;;;33.70;17.23;;;;;;;16.67;76.57;101151.20;4993748;57;1143130;-76
2023/04/10 17:23:23;;;;;;;106.60;67.10;;;;;;;16.61;77.76;101151.27;4872899;58;1143240;-75
2023/04/10 17:28:29;;;;;;;59.73;41.47;;;;;;;16.55;78.43;101151.82;4944374;58;1145205;-77
2023/04/10 17:33:35;;;;;;;18.03;12.20;;;;;;;16.45;78.95;101147.83;4919392;58;1259240;-75
2023/04/10 17:38:41;;;;;;;13.70;10.57;;;;;;;16.31;79.43;101146.93;4847192;59;1260126;-75
2023/04/10 17:43:48;;;;;;;15.47;9.97;;;;;;;16.24;80.34;101148.95;4895182;57;1249345;-74
2023/04/10 17:48:57;;;;;;;64.82;37.53;;;;;;;16.12;80.53;101139.75;5050145;56;1141071;-74
2023/04/10 17:54:03;;;;;;;38.77;21.60;;;;;;;15.95;81.29;101144.44;5051150;56;1143063;-76
2023/04/10 17:59:09;;;;;;;47.63;27.47;;;;;;;15.79;82.19;101142.30;5106145;56;1143077;-75
2023/04/10 18:04:15;;;;;;;91.30;44.98;;;;;;;15.74;82.95;101137.86;5086831;56;1143120;-76
2023/04/10 18:09:21;;;;;;;67.23;35.60;;;;;;;15.65;83.49;101132.03;5001821;56;1143043;-76
2023/04/10 18:14:26;;;;;;;120.63;63.37;;;;;;;15.49;83.29;101126.33;5098436;56;1143191;-76
2023/04/10 18:19:32;;;;;;;52.03;29.83;;;;;;;15.26;83.35;101128.86;5133984;56;1144974;-76
2023/04/10 18:24:37;;;;;;;56.97;33.87;;;;;;;15.11;84.41;101123.05;5131721;56;1237280;-76
2023/04/10 18:29:44;;;;;;;114.12;59.53;;;;;;;15.03;84.84;101127.70;5113992;56;1163265;-75
2023/04/10 18:34:50;;;;;;;170.15;95.50;;;;;;;14.85;85.16;101129.77;5085837;56;1145370;-74
2023/04/10 18:39:56;;;;;;;235.63;119.87;;;;;;;14.65;85.82;101120.35;5066812;56;1145104;-75
2023/04/10 18:45:02;;;;;;;146.40;76.40;;;;;;;14.47;86.46;101123.23;5043648;56;1147425;-74
2023/04/10 18:50:10;;;;;;;105.20;59.30;;;;;;;14.36;87.23;101125.92;5065620;56;1145018;-76
2023/04/10 18:55:16;;;;;;;81.40;47.87;;;;;;;14.28;87.66;101131.87;5056830;56;1145203;-76
2023/04/10 19:00:22;;;;;;;70.47;41.90;;;;;;;14.11;87.96;101120.94;5038416;56;1247758;-74
2023/04/10 19:05:31;;;;;;;601.13;385.33;;;;;;;14.03;88.76;101117.11;5094703;56;1143037;-76
2023/04/10 19:10:38;;;;;;;167.73;88.40;;;;;;;13.89;88.07;101104.59;5080281;56;1147088;-75
2023/04/10 19:15:48;;;;;;;253.20;144.57;;;;;;;13.72;88.56;101111.29;5040172;57;1145131;-77
2023/04/10 19:20:54;;;;;;;177.93;98.45;;;;;;;13.51;89.24;101105.04;5005096;56;1176220;-74
2023/04/10 19:26:33;;;;;;;177.53;91.30;;;;;;;13.31;90.00;101102.16;4937709;55;1145108;-77
2023/04/10 19:31:32;;;;;;;127.95;64.92;;;;;;;13.18;90.32;101095.28;4960419;57;1234307;-76
2023/04/10 19:36:38;;;;;;;114.70;59.23;;;;;;;13.14;91.02;101092.50;4947401;57;1145263;-75
2023/04/10 19:41:44;;;;;;;99.90;45.77;;;;;;;13.12;91.46;101085.14;4942588;57;1153598;-75
2023/04/10 19:46:50;;;;;;;107.07;55.53;;;;;;;13.03;91.86;101081.37;4933687;57;1197206;-75
2023/04/10 19:51:57;;;;;;;82.85;45.78;;;;;;;12.98;92.31;101079.59;4986061;57;1145145;-75
2023/04/10 19:57:03;;;;;;;74.43;39.57;;;;;;;12.96;92.81;101074.88;4947979;57;1143074;-75
2023/04/10 20:02:14;;;;;;;74.30;40.33;;;;;;;12.94;92.34;101079.46;4938245;57;1143166;-75
2023/04/10 20:07:16;;;;;;;82.27;41.67;;;;;;;12.85;92.83;101074.85;4950490;58;1143109;-75
2023/04/10 20:12:21;;;;;;;83.60;44.60;;;;;;;12.75;93.06;101066.77;4941508;57;1187979;-75
2023/04/10 20:17:28;;;;;;;85.73;44.30;;;;;;;12.69;93.58;101066.75;4929322;57;1237007;-75
2023/04/10 20:22:34;;;;;;;65.47;33.90;;;;;;;12.59;93.34;101064.95;4955038;57;1143017;-75
2023/04/10 20:27:42;;;;;;;71.90;36.97;;;;;;;12.37;93.25;101052.50;4938307;57;1143042;-76
2023/04/10 20:32:48;;;;;;;82.80;32.20;;;;;;;12.14;94.44;101043.63;4833928;58;1143102;-75
2023/04/10 20:37:56;;;;;;;57.60;27.15;;;;;;;12.03;95.30;101040.11;4921925;58;1142988;-75
2023/04/10 20:43:02;;;;;;;51.57;24.40;;;;;;;11.98;96.00;101035.98;4941540;58;1143040;-75
2023/04/10 20:48:08;;;;;;;73.63;32.70;;;;;;;11.92;96.81;101033.78;4957813;56;1143086;-77
2023/04/10 20:53:14;;;;;;;47.70;22.77;;;;;;;11.92;97.30;101028.96;4944759;56;1143205;-75
2023/04/10 20:58:20;;;;;;;45.47;21.50;;;;;;;11.93;97.81;101021.38;4967876;57;1143156;-76
2023/04/10 21:03:26;;;;;;;33.40;17.70;;;;;;;11.89;97.59;101015.97;4906849;57;1142905;-77
2023/04/10 21:08:32;;;;;;;48.43;26.27;;;;;;;11.72;97.06;101003.09;4933689;57;1142959;-76
2023/04/10 21:13:37;;;;;;;67.37;31.43;;;;;;;11.54;98.34;100988.92;4899458;57;1143119;-77
2023/04/10 21:18:43;;;;;;;58.10;29.47;;;;;;;11.45;99.47;100990.10;4910772;58;1143138;-76
2023/04/10 21:23:48;;;;;;;67.62;28.98;;;;;;;11.41;100.00;100984.66;4930046;58;1143129;-77
2023/04/10 21:28:54;;;;;;;89.55;35.05;;;;;;;11.39;100.00;100973.32;4950116;58;1145188;-76
2023/04/10 21:34:00;;;;;;;73.17;34.03;;;;;;;11.35;100.00;100962.10;4930213;58;1145214;-75
2023/04/10 21:39:07;;;;;;;66.33;32.30;;;;;;;11.36;100.00;100958.98;4930387;58;1145221;-76
2023/04/10 21:44:13;;;;;;;48.63;28.07;;;;;;;11.29;100.00;100948.02;4946603;57;1145215;-76
2023/04/10 21:49:18;;;;;;;63.73;31.33;;;;;;;11.26;100.00;100941.61;5006116;57;1145204;-76
2023/04/10 21:54:24;;;;;;;67.40;33.90;;;;;;;11.21;100.00;100926.53;4970124;57;1145048;-76
2023/04/10 21:59:35;;;;;;;61.13;28.77;;;;;;;11.22;100.00;100924.25;4949296;58;1145240;-77
2023/04/10 22:04:37;;;;;;;72.43;35.70;;;;;;;11.26;100.00;100915.13;4930027;57;1145277;-75
2023/04/10 22:09:43;;;;;;;51.57;27.33;;;;;;;11.28;100.00;100907.45;4885236;58;1249427;-77
2023/04/10 22:14:51;;;;;;;86.82;44.48;;;;;;;11.31;100.00;100901.53;4911814;57;1229419;-75
2023/04/10 22:19:56;;;;;;;39.97;24.20;;;;;;;11.27;100.00;100897.81;5008774;57;1145271;-75
2023/04/10 22:25:02;;;;;;;51.23;28.33;;;;;;;11.27;100.00;100901.78;4864419;58;1256490;-75
2023/04/10 22:30:09;;;;;;;46.20;25.83;;;;;;;11.20;100.00;100889.94;5042198;57;1256004;-76
2023/04/10 22:35:15;;;;;;;41.87;22.83;;;;;;;11.15;100.00;100885.45;5063461;57;1201674;-76
2023/04/10 22:40:21;;;;;;;35.87;21.23;;;;;;;11.08;100.00;100869.69;5041008;57;1243017;-77
2023/04/10 22:45:26;;;;;;;46.93;25.17;;;;;;;11.04;100.00;100864.72;4985231;57;1256506;-76
2023/04/10 22:50:32;;;;;;;32.00;21.67;;;;;;;11.03;100.00;100857.73;4959862;56;1261145;-75
2023/04/10 22:55:40;;;;;;;30.60;19.03;;;;;;;11.00;100.00;100856.16;4940641;58;1260973;-75
2023/04/10 23:00:46;;;;;;;34.43;20.30;;;;;;;10.98;100.00;100847.51;4939944;57;1254337;-76
2023/04/10 23:05:52;;;;;;;34.73;20.07;;;;;;;10.97;100.00;100838.36;4941143;57;1262061;-77